Time;durP1;ratioP1;P1;durP2;ratioP2;P2;SDS_P1;SDS_P2;PMS_P1;PMS_P2;Temp;Humidity;BMP_temperature;BMP_pressure;BME280_temperature;BME280_humidity;BME280_pressure;Samples;Min_cycle;Max_cycle;Signal;HPM_P1;HPM_P2
2021/10/10 00:01:55;;;;;;;20.77;13.83;;;7.20;99.90;;;;;;5019461;28;20218;-87
2021/10/10 00:04:20;;;;;;;19.43;13.87;;;7.10;99.90;;;;;;5019009;28;20242;-87
2021/10/10 00:06:46;;;;;;;20.10;13.43;;;7.00;99.90;;;;;;5018908;28;20179;-87
2021/10/10 00:09:11;;;;;;;20.13;14.30;;;7.00;99.90;;;;;;5018505;28;20176;-86
2021/10/10 00:11:37;;;;;;;18.53;13.37;;;7.00;99.90;;;;;;5018558;28;20183;-87
2021/10/10 00:14:02;;;;;;;19.93;13.00;;;6.90;99.90;;;;;;5018889;28;20279;-87
2021/10/10 00:16:28;;;;;;;22.50;13.43;;;6.90;99.90;;;;;;5035546;28;20215;-87
2021/10/10 00:18:54;;;;;;;20.97;13.53;;;6.90;99.90;;;;;;5035453;28;20180;-87
2021/10/10 00:21:19;;;;;;;17.57;12.90;;;7.00;99.90;;;;;;5018838;28;20242;-86
2021/10/10 00:23:45;;;;;;;17.60;12.77;;;6.90;99.90;;;;;;5034993;28;20206;-87
2021/10/10 00:26:10;;;;;;;19.47;13.13;;;6.80;99.90;;;;;;5019104;28;20277;-87
2021/10/10 00:28:36;;;;;;;18.77;12.33;;;6.80;99.90;;;;;;5018634;28;20210;-87
2021/10/10 00:31:01;;;;;;;17.07;13.10;;;6.80;99.90;;;;;;5018910;28;20200;-87
2021/10/10 00:33:27;;;;;;;20.60;13.70;;;6.70;99.90;;;;;;5034396;28;20242;-87
2021/10/10 00:35:53;;;;;;;18.97;12.70;;;6.70;99.90;;;;;;5018092;28;20187;-87
2021/10/10 00:38:18;;;;;;;22.27;14.23;;;6.60;99.90;;;;;;5024175;28;20175;-87
2021/10/10 00:40:44;;;;;;;19.27;13.37;;;6.60;99.90;;;;;;5020264;28;20463;-87
2021/10/10 00:43:10;;;;;;;19.90;14.00;;;6.60;99.90;;;;;;5018714;28;20195;-87
2021/10/10 00:45:35;;;;;;;22.60;13.40;;;6.50;99.90;;;;;;5018430;28;20603;-87
2021/10/10 00:48:01;;;;;;;15.80;12.53;;;6.50;99.90;;;;;;5018299;28;20258;-87
2021/10/10 00:50:28;;;;;;;18.17;14.10;;;6.50;99.90;;;;;;5017595;28;20195;-87
2021/10/10 00:52:53;;;;;;;18.20;12.87;;;6.50;99.90;;;;;;5017771;28;20587;-87
2021/10/10 00:55:20;;;;;;;19.23;13.30;;;6.40;99.90;;;;;;5017042;28;20195;-87
2021/10/10 00:57:47;;;;;;;19.03;13.57;;;6.40;99.90;;;;;;5017249;28;20188;-87
2021/10/10 01:00:13;;;;;;;18.80;14.23;;;6.50;99.90;;;;;;5033644;28;20219;-87
2021/10/10 01:02:41;;;;;;;22.13;14.13;;;6.40;99.90;;;;;;5018977;28;20566;-87
2021/10/10 01:05:07;;;;;;;21.03;15.10;;;6.40;99.90;;;;;;5017969;28;20207;-87
2021/10/10 01:07:33;;;;;;;17.57;13.77;;;6.40;99.90;;;;;;5017738;28;20742;-87
2021/10/10 01:09:59;;;;;;;21.67;13.73;;;6.40;99.90;;;;;;5000371;28;20195;-87
2021/10/10 01:12:25;;;;;;;25.33;14.70;;;6.30;99.90;;;;;;5017203;28;20674;-87
2021/10/10 01:14:51;;;;;;;21.13;14.37;;;6.30;99.90;;;;;;5017381;28;20187;-87
2021/10/10 01:17:16;;;;;;;18.90;14.03;;;6.30;99.90;;;;;;5016247;28;20180;-87
2021/10/10 01:19:42;;;;;;;19.77;14.50;;;6.30;99.90;;;;;;5016887;28;20601;-87
2021/10/10 01:22:07;;;;;;;18.17;13.40;;;6.30;99.90;;;;;;5015985;28;20183;-87
2021/10/10 01:24:33;;;;;;;22.43;14.23;;;6.20;99.90;;;;;;5016977;28;20199;-87
2021/10/10 01:26:59;;;;;;;19.73;14.13;;;6.20;99.90;;;;;;5016702;28;20206;-87
2021/10/10 01:29:24;;;;;;;24.33;14.53;;;6.30;99.90;;;;;;5016092;28;20206;-87
2021/10/10 01:31:50;;;;;;;20.90;15.10;;;6.20;99.90;;;;;;5016252;28;20206;-87
2021/10/10 01:34:15;;;;;;;23.20;14.97;;;6.10;99.90;;;;;;5015900;28;20179;-87
2021/10/10 01:36:41;;;;;;;21.30;14.93;;;6.00;99.90;;;;;;5015918;28;20249;-87
2021/10/10 01:39:07;;;;;;;19.83;15.20;;;6.00;99.90;;;;;;5015712;28;20190;-87
2021/10/10 01:41:32;;;;;;;20.27;15.10;;;6.00;99.90;;;;;;5033554;28;20271;-88
2021/10/10 01:43:58;;;;;;;23.57;16.13;;;5.90;99.90;;;;;;5016812;28;20200;-88
2021/10/10 01:46:23;;;;;;;24.37;15.53;;;5.90;99.90;;;;;;5032743;28;20322;-88
2021/10/10 01:48:49;;;;;;;22.47;15.03;;;5.90;99.90;;;;;;5016115;28;20216;-88
2021/10/10 01:51:14;;;;;;;23.63;15.10;;;5.90;99.90;;;;;;5016098;28;20208;-88
2021/10/10 01:53:40;;;;;;;22.90;15.17;;;5.90;99.90;;;;;;5015554;28;20199;-88
2021/10/10 01:56:06;;;;;;;24.20;14.17;;;6.00;99.90;;;;;;5016395;28;20182;-87
2021/10/10 01:58:32;;;;;;;21.20;14.47;;;5.90;99.90;;;;;;5015462;28;20188;-88
2021/10/10 02:00:58;;;;;;;21.40;14.37;;;5.90;99.90;;;;;;5016238;28;20261;-87
2021/10/10 02:03:24;;;;;;;22.87;15.47;;;5.90;99.90;;;;;;5016537;28;20176;-87
2021/10/10 02:05:50;;;;;;;21.67;14.57;;;5.90;99.90;;;;;;5016694;28;20288;-87
2021/10/10 02:08:16;;;;;;;18.37;13.93;;;5.90;99.90;;;;;;5031065;28;20233;-88
2021/10/10 02:10:42;;;;;;;22.43;14.87;;;5.90;99.90;;;;;;5014454;28;20230;-87
2021/10/10 02:13:07;;;;;;;20.10;14.30;;;5.90;99.90;;;;;;5014599;28;20199;-87
2021/10/10 02:15:33;;;;;;;22.00;14.20;;;5.80;99.90;;;;;;5014534;28;20673;-87
2021/10/10 02:17:58;;;;;;;22.80;14.00;;;5.70;99.90;;;;;;5013883;28;20176;-87
2021/10/10 02:20:24;;;;;;;18.83;13.80;;;5.70;99.90;;;;;;5030527;28;20213;-88
2021/10/10 02:22:50;;;;;;;23.83;13.97;;;5.70;99.90;;;;;;5014384;28;20187;-88
2021/10/10 02:25:15;;;;;;;20.30;13.67;;;5.60;99.90;;;;;;5013888;28;20265;-88
2021/10/10 02:27:41;;;;;;;20.03;13.77;;;5.60;99.90;;;;;;5013950;28;20179;-88
2021/10/10 02:30:07;;;;;;;18.83;13.40;;;5.60;99.90;;;;;;5014208;28;20206;-88
2021/10/10 02:32:32;;;;;;;18.43;13.07;;;5.60;99.90;;;;;;5013725;28;20185;-88
2021/10/10 02:34:58;;;;;;;20.63;13.67;;;5.60;99.90;;;;;;5030751;28;20238;-85
2021/10/10 02:37:24;;;;;;;19.43;14.43;;;5.50;99.90;;;;;;5031154;28;20171;-87
2021/10/10 02:39:51;;;;;;;17.43;12.90;;;5.40;99.90;;;;;;5014117;28;20745;-85
2021/10/10 02:42:17;;;;;;;19.77;13.83;;;5.40;99.90;;;;;;5014312;28;20536;-86
2021/10/10 02:44:42;;;;;;;21.47;14.10;;;5.40;99.90;;;;;;5014420;28;20210;-85
2021/10/10 02:47:08;;;;;;;22.07;14.17;;;5.40;99.90;;;;;;5030477;28;20174;-86
2021/10/10 02:49:34;;;;;;;19.73;13.80;;;5.30;99.90;;;;;;5014362;28;20675;-85
2021/10/10 02:51:59;;;;;;;16.33;12.97;;;5.30;99.90;;;;;;5016755;28;20266;-86
2021/10/10 02:54:25;;;;;;;16.37;12.63;;;5.30;99.90;;;;;;5034088;28;20192;-86
2021/10/10 02:56:50;;;;;;;19.33;13.00;;;5.30;99.90;;;;;;5015573;28;20548;-86
2021/10/10 02:59:16;;;;;;;17.60;12.70;;;5.30;99.90;;;;;;5014557;28;20663;-85
2021/10/10 03:01:41;;;;;;;17.47;12.10;;;5.30;99.90;;;;;;5031486;28;20654;-85
2021/10/10 03:04:07;;;;;;;19.00;13.13;;;5.30;99.90;;;;;;5030646;28;20207;-87
2021/10/10 03:06:32;;;;;;;16.27;12.80;;;5.20;99.90;;;;;;5030189;28;20178;-87
2021/10/10 03:08:58;;;;;;;18.57;13.00;;;5.20;99.90;;;;;;5013453;28;20247;-87
2021/10/10 03:11:23;;;;;;;16.97;12.33;;;5.20;99.90;;;;;;5013545;28;20207;-86
2021/10/10 03:13:49;;;;;;;16.23;12.57;;;5.20;99.90;;;;;;5013281;28;20191;-86
2021/10/10 03:16:15;;;;;;;16.03;12.17;;;5.20;99.90;;;;;;5013568;28;20233;-86
2021/10/10 03:18:40;;;;;;;17.67;12.33;;;5.20;99.90;;;;;;5013292;28;20265;-86
2021/10/10 03:21:06;;;;;;;15.73;11.73;;;5.20;99.90;;;;;;5029753;28;20195;-86
2021/10/10 03:23:31;;;;;;;16.83;12.33;;;5.20;99.90;;;;;;5014190;28;20703;-87
2021/10/10 03:25:57;;;;;;;15.33;12.27;;;5.10;99.90;;;;;;5013866;28;20582;-86
2021/10/10 03:28:22;;;;;;;16.67;12.33;;;5.10;99.90;;;;;;5016927;28;20249;-86
2021/10/10 03:30:48;;;;;;;15.63;12.10;;;5.10;99.90;;;;;;5014569;28;20665;-86
2021/10/10 03:33:13;;;;;;;16.90;11.90;;;5.10;99.90;;;;;;5014568;28;20599;-86
2021/10/10 03:35:39;;;;;;;16.60;12.17;;;5.00;99.90;;;;;;5030661;28;20203;-87
2021/10/10 03:38:04;;;;;;;17.93;13.17;;;5.00;99.90;;;;;;5030397;28;20190;-86
2021/10/10 03:40:30;;;;;;;17.60;12.10;;;5.00;99.90;;;;;;5014281;28;20298;-86
2021/10/10 03:42:56;;;;;;;16.23;13.03;;;5.00;99.90;;;;;;5030906;28;20266;-86
2021/10/10 03:45:21;;;;;;;15.80;12.17;;;5.00;99.90;;;;;;5013415;28;20222;-87
2021/10/10 03:47:47;;;;;;;17.47;12.17;;;5.00;99.90;;;;;;5030287;28;20175;-86
2021/10/10 03:50:12;;;;;;;18.27;12.60;;;4.90;99.90;;;;;;5014201;28;20238;-86
2021/10/10 03:52:40;;;;;;;18.47;12.40;;;5.00;99.90;;;;;;5013872;28;20179;-87
2021/10/10 03:57:43;;;;;;;19.20;12.80;;;5.00;99.90;;;;;;5043223;28;20179;-86
2021/10/10 04:00:12;;;;;;;18.13;12.13;;;5.00;99.90;;;;;;5022678;23;20228;-78
2021/10/10 04:02:38;;;;;;;19.53;12.70;;;5.00;99.90;;;;;;4971715;28;20553;-78
2021/10/10 04:05:07;;;;;;;19.97;12.90;;;5.00;99.90;;;;;;4987825;28;20255;-77
2021/10/10 04:07:32;;;;;;;19.17;13.67;;;5.00;99.90;;;;;;4987383;28;20235;-78
2021/10/10 04:09:58;;;;;;;21.17;13.23;;;4.90;99.90;;;;;;4987514;28;20735;-78
2021/10/10 04:12:23;;;;;;;18.27;12.90;;;4.90;99.90;;;;;;4971905;28;20272;-78
2021/10/10 04:14:49;;;;;;;17.87;12.60;;;4.90;99.90;;;;;;4988198;28;20300;-78
2021/10/10 04:17:14;;;;;;;16.93;12.57;;;4.80;99.90;;;;;;4971755;28;20295;-78
2021/10/10 04:19:40;;;;;;;17.97;12.63;;;4.80;99.90;;;;;;4971443;28;20185;-77
2021/10/10 04:22:05;;;;;;;17.07;12.27;;;4.80;99.90;;;;;;4955601;28;20240;-78
2021/10/10 04:24:31;;;;;;;20.17;13.20;;;4.80;99.90;;;;;;4987712;28;20295;-78
2021/10/10 04:26:56;;;;;;;18.10;12.30;;;4.80;99.90;;;;;;4971649;28;20184;-78
2021/10/10 04:29:22;;;;;;;18.63;12.90;;;4.80;99.90;;;;;;4971587;28;20228;-78
2021/10/10 04:31:48;;;;;;;17.30;12.37;;;4.80;99.90;;;;;;4955569;28;20181;-78
2021/10/10 04:34:14;;;;;;;20.13;12.50;;;4.70;99.90;;;;;;4971608;28;20187;-78
2021/10/10 04:36:40;;;;;;;16.70;12.77;;;4.70;99.90;;;;;;4987581;28;20640;-78
2021/10/10 04:39:05;;;;;;;17.90;12.17;;;4.70;99.90;;;;;;4971319;28;20187;-78
2021/10/10 04:41:31;;;;;;;18.10;13.00;;;4.70;99.90;;;;;;4987690;28;20197;-79
2021/10/10 04:43:56;;;;;;;19.33;12.90;;;4.70;99.90;;;;;;4972795;28;20269;-78
2021/10/10 04:46:22;;;;;;;20.00;13.87;;;4.70;99.90;;;;;;4991364;28;20173;-78
2021/10/10 04:48:47;;;;;;;18.97;13.83;;;4.70;99.90;;;;;;4991069;28;20239;-76
2021/10/10 04:51:13;;;;;;;19.67;13.43;;;4.70;99.90;;;;;;4975203;28;20193;-79
2021/10/10 04:53:38;;;;;;;20.83;14.00;;;4.70;99.90;;;;;;4974742;28;20267;-78
2021/10/10 04:56:04;;;;;;;21.10;14.30;;;4.70;99.90;;;;;;4974914;28;20237;-78
2021/10/10 04:58:30;;;;;;;20.33;13.27;;;4.70;99.90;;;;;;4990901;28;20181;-78
2021/10/10 05:00:57;;;;;;;20.27;13.83;;;4.60;99.90;;;;;;4990872;28;20221;-78
2021/10/10 05:03:23;;;;;;;20.57;14.07;;;4.60;99.90;;;;;;4990798;28;20191;-78
2021/10/10 05:05:48;;;;;;;20.17;13.50;;;4.60;99.90;;;;;;4974393;28;20208;-78
2021/10/10 05:08:14;;;;;;;21.30;13.00;;;4.60;99.90;;;;;;4958104;28;20176;-78
2021/10/10 05:10:39;;;;;;;18.20;12.80;;;4.60;99.90;;;;;;4958865;28;20189;-77
2021/10/10 05:13:05;;;;;;;19.53;12.93;;;4.50;99.90;;;;;;4974763;28;20184;-78
2021/10/10 05:15:30;;;;;;;19.30;13.00;;;4.50;99.90;;;;;;4958484;28;20217;-78
2021/10/10 05:17:56;;;;;;;18.00;12.63;;;4.50;99.90;;;;;;4973560;28;20200;-78
2021/10/10 05:20:22;;;;;;;19.77;13.50;;;4.50;99.90;;;;;;4959912;28;20201;-78
2021/10/10 05:22:47;;;;;;;19.23;12.80;;;4.40;99.90;;;;;;4974287;28;20179;-78
2021/10/10 05:25:13;;;;;;;20.80;13.10;;;4.40;99.90;;;;;;4974080;28;20206;-78
2021/10/10 05:27:38;;;;;;;17.90;12.60;;;4.40;99.90;;;;;;4974008;28;20246;-78
2021/10/10 05:30:04;;;;;;;17.57;12.73;;;4.30;99.90;;;;;;4974079;28;20665;-78
2021/10/10 05:32:30;;;;;;;18.87;12.77;;;4.30;99.90;;;;;;4974045;28;20185;-77
2021/10/10 05:34:55;;;;;;;19.57;13.30;;;4.30;99.90;;;;;;4974095;28;20573;-78
2021/10/10 05:37:22;;;;;;;20.83;13.13;;;4.30;99.90;;;;;;4974239;28;20552;-78
2021/10/10 05:39:47;;;;;;;20.40;12.40;;;4.30;99.90;;;;;;4973930;28;20196;-78
2021/10/10 05:42:13;;;;;;;18.20;12.63;;;4.30;99.90;;;;;;4974182;28;20192;-78
2021/10/10 05:44:39;;;;;;;18.43;13.07;;;4.30;99.90;;;;;;4974894;28;20212;-78
2021/10/10 05:47:04;;;;;;;18.90;13.23;;;4.30;99.90;;;;;;4973976;28;20289;-78
2021/10/10 05:49:30;;;;;;;18.70;13.73;;;4.30;99.90;;;;;;4973625;28;20549;-78
2021/10/10 05:51:58;;;;;;;19.00;12.87;;;4.30;99.90;;;;;;4957161;28;20184;-77
2021/10/10 05:54:24;;;;;;;21.03;13.17;;;4.20;99.90;;;;;;4974103;28;20196;-78
2021/10/10 05:56:49;;;;;;;20.93;14.33;;;4.20;99.90;;;;;;4974924;28;20185;-78
2021/10/10 05:59:16;;;;;;;19.67;13.50;;;4.20;99.90;;;;;;4957258;28;20667;-77
2021/10/10 06:01:42;;;;;;;18.13;12.63;;;4.30;99.90;;;;;;4973258;28;20216;-77
2021/10/10 06:04:07;;;;;;;18.30;13.67;;;4.30;99.90;;;;;;4973201;28;20611;-77
2021/10/10 06:06:33;;;;;;;19.70;13.23;;;4.30;99.90;;;;;;4989163;28;20276;-78
2021/10/10 06:08:58;;;;;;;19.93;13.70;;;4.30;99.90;;;;;;4970241;28;20191;-78
2021/10/10 06:11:24;;;;;;;18.23;13.87;;;4.40;99.90;;;;;;4972636;28;20200;-79
2021/10/10 06:13:49;;;;;;;18.80;13.20;;;4.40;99.90;;;;;;4957060;28;20173;-78
2021/10/10 06:16:15;;;;;;;20.83;14.03;;;4.50;99.90;;;;;;4972825;28;20204;-83
2021/10/10 06:18:41;;;;;;;19.13;13.83;;;4.50;99.90;;;;;;4969634;28;20175;-82
2021/10/10 06:21:07;;;;;;;20.57;14.00;;;4.50;99.90;;;;;;4960291;28;20199;-82
2021/10/10 06:23:32;;;;;;;18.47;13.23;;;4.60;99.90;;;;;;4976320;28;20173;-83
2021/10/10 06:25:58;;;;;;;17.93;13.50;;;4.60;99.90;;;;;;4946503;28;20634;-82
2021/10/10 06:28:23;;;;;;;18.73;13.50;;;4.70;99.90;;;;;;4971225;28;20198;-83
2021/10/10 06:30:49;;;;;;;21.97;15.20;;;4.80;99.90;;;;;;4959010;28;20301;-83
2021/10/10 06:33:15;;;;;;;20.77;14.30;;;4.80;99.90;;;;;;4946391;28;20229;-85
2021/10/10 06:35:40;;;;;;;19.13;13.83;;;4.90;99.90;;;;;;4974020;28;20243;-86
2021/10/10 06:38:06;;;;;;;21.90;14.53;;;5.10;99.90;;;;;;4973456;28;20246;-85
2021/10/10 06:40:31;;;;;;;18.90;14.00;;;5.20;99.90;;;;;;4956594;28;20299;-84
2021/10/10 06:42:57;;;;;;;19.73;13.93;;;5.30;99.90;;;;;;4973318;28;20294;-81
2021/10/10 06:45:22;;;;;;;17.67;13.43;;;5.40;99.90;;;;;;4957453;28;20617;-83
2021/10/10 06:47:48;;;;;;;20.73;14.50;;;5.60;99.90;;;;;;4957497;28;20185;-83
2021/10/10 06:50:13;;;;;;;20.87;14.23;;;5.70;99.90;;;;;;4963173;28;20291;-83
2021/10/10 06:52:39;;;;;;;19.27;14.07;;;5.90;99.90;;;;;;4960796;28;20169;-82
2021/10/10 06:55:05;;;;;;;19.53;14.87;;;6.10;99.90;;;;;;4960175;28;20207;-84
2021/10/10 06:57:32;;;;;;;19.43;14.17;;;6.20;99.90;;;;;;4960935;28;20191;-83
2021/10/10 06:59:59;;;;;;;22.93;14.93;;;6.40;99.90;;;;;;4976205;28;20217;-82
2021/10/10 07:02:25;;;;;;;17.57;14.30;;;6.60;99.90;;;;;;4954395;28;20564;-83
2021/10/10 07:04:51;;;;;;;23.70;15.30;;;6.70;99.90;;;;;;4973189;28;20211;-83
2021/10/10 07:07:16;;;;;;;22.53;15.33;;;6.80;99.90;;;;;;4956700;28;20565;-85
2021/10/10 07:09:42;;;;;;;20.00;15.23;;;6.90;99.90;;;;;;4973120;28;20174;-83
2021/10/10 07:12:07;;;;;;;19.37;15.10;;;7.00;99.90;;;;;;4956066;28;20181;-86
2021/10/10 07:14:33;;;;;;;20.73;15.33;;;7.10;99.90;;;;;;4973638;28;20185;-83
2021/10/10 07:16:59;;;;;;;22.67;16.07;;;7.00;99.90;;;;;;4946785;28;20248;-79
2021/10/10 07:19:32;;;;;;;21.10;15.90;;;7.00;99.90;;;;;;4938369;29;20217;-81
2021/10/10 07:22:00;;;;;;;19.70;14.83;;;7.10;99.90;;;;;;4939707;29;20689;-81
2021/10/10 07:27:24;;;;;;;20.67;15.70;;;7.40;99.90;;;;;;4953489;28;20289;-78
2021/10/10 07:29:50;;;;;;;20.03;14.60;;;7.60;99.90;;;;;;4936794;29;20247;-78
2021/10/10 07:32:16;;;;;;;21.77;15.20;;;7.70;99.90;;;;;;4941300;28;20185;-78
2021/10/10 07:34:41;;;;;;;21.03;15.00;;;7.90;99.90;;;;;;4942914;28;20221;-77
2021/10/10 07:37:07;;;;;;;21.10;15.50;;;8.10;99.90;;;;;;4953082;29;20178;-77
2021/10/10 07:39:32;;;;;;;19.23;14.30;;;8.30;99.90;;;;;;4937521;29;20216;-80
2021/10/10 07:41:58;;;;;;;21.27;14.53;;;8.50;99.90;;;;;;4954725;29;20258;-81
2021/10/10 07:44:27;;;;;;;20.73;15.40;;;8.80;99.90;;;;;;4953062;29;20213;-78
2021/10/10 07:47:43;;;;;;;22.53;14.80;;;8.90;99.90;;;;;;4937307;29;20180;-77
2021/10/10 07:49:42;;;;;;;19.90;14.73;;;9.10;99.90;;;;;;4955660;29;20306;-81
2021/10/10 07:52:08;;;;;;;20.70;14.33;;;9.30;99.90;;;;;;4937315;29;20209;-77
2021/10/10 07:54:33;;;;;;;17.43;13.20;;;9.60;99.90;;;;;;4961044;29;20648;-78
2021/10/10 07:56:59;;;;;;;19.00;13.70;;;9.60;99.90;;;;;;4945234;29;20192;-80
2021/10/10 07:59:24;;;;;;;20.43;13.97;;;9.80;99.90;;;;;;4961735;29;20184;-76
2021/10/10 08:01:50;;;;;;;19.47;14.13;;;9.90;99.90;;;;;;4959558;29;20215;-82
2021/10/10 08:04:15;;;;;;;18.53;13.43;;;10.10;99.90;;;;;;4967371;29;20208;-82
2021/10/10 08:06:41;;;;;;;18.30;13.33;;;10.40;99.90;;;;;;4949795;29;20750;-81
2021/10/10 08:09:06;;;;;;;18.20;13.87;;;10.40;99.90;;;;;;4968690;29;20197;-83
2021/10/10 08:11:32;;;;;;;17.43;13.37;;;10.50;99.90;;;;;;4973097;28;20222;-81
2021/10/10 08:13:57;;;;;;;18.90;13.27;;;10.70;99.90;;;;;;4973141;28;20190;-81
2021/10/10 08:16:23;;;;;;;19.47;12.90;;;10.90;99.90;;;;;;4979577;28;20647;-80
2021/10/10 08:18:48;;;;;;;16.30;12.80;;;11.30;99.90;;;;;;4967283;28;20625;-83
2021/10/10 08:21:14;;;;;;;17.77;12.87;;;11.90;99.90;;;;;;4967717;28;20726;-82
2021/10/10 08:23:39;;;;;;;17.57;13.27;;;12.20;99.90;;;;;;4956463;28;20648;-79
2021/10/10 08:26:05;;;;;;;17.23;12.60;;;12.70;99.90;;;;;;4959842;28;20551;-78
2021/10/10 08:28:30;;;;;;;18.87;12.07;;;13.40;99.90;;;;;;4976347;28;20263;-81
2021/10/10 08:30:56;;;;;;;15.57;11.20;;;14.10;99.90;;;;;;4976266;28;20239;-78
2021/10/10 08:33:22;;;;;;;16.60;11.40;;;14.70;99.90;;;;;;4976734;28;20177;-76
2021/10/10 08:35:49;;;;;;;16.53;11.53;;;15.70;99.90;;;;;;4975800;28;20173;-79
2021/10/10 08:38:14;;;;;;;15.40;11.10;;;16.50;99.90;;;;;;4976387;28;20710;-78
2021/10/10 08:40:40;;;;;;;15.57;11.20;;;17.30;99.90;;;;;;4975513;28;20197;-78
2021/10/10 08:43:06;;;;;;;16.80;11.40;;;17.50;99.90;;;;;;4959354;28;20350;-78
2021/10/10 08:45:32;;;;;;;14.97;10.53;;;18.20;99.90;;;;;;4975113;28;20205;-78
2021/10/10 08:47:57;;;;;;;14.10;10.60;;;18.00;99.90;;;;;;4975311;28;20687;-78
2021/10/10 08:50:27;;;;;;;19.30;10.80;;;17.80;99.90;;;;;;4958758;28;20583;-78
2021/10/10 08:52:58;;;;;;;16.03;10.93;;;17.80;99.90;;;;;;4959110;28;20220;-77
2021/10/10 08:55:25;;;;;;;15.43;12.03;;;17.00;99.90;;;;;;4977545;28;20169;-78
2021/10/10 08:57:51;;;;;;;15.60;11.47;;;15.60;99.90;;;;;;4960882;28;20200;-79
2021/10/10 09:00:19;;;;;;;16.67;11.17;;;15.20;99.90;;;;;;4960219;28;20216;-76
2021/10/10 09:02:50;;;;;;;18.23;12.43;;;15.30;99.90;;;;;;4975859;28;20236;-77
2021/10/10 09:05:16;;;;;;;15.23;10.90;;;16.40;99.90;;;;;;4960455;28;20239;-79
2021/10/10 09:07:43;;;;;;;15.73;11.50;;;17.70;99.90;;;;;;4962313;28;20563;-81
2021/10/10 09:10:28;;;;;;;17.13;11.60;;;18.10;99.90;;;;;;4962381;28;20262;-79
2021/10/10 09:13:15;;;;;;;14.57;10.43;;;18.90;99.90;;;;;;4979750;28;20188;-76
2021/10/10 09:15:47;;;;;;;16.10;10.13;;;19.70;99.90;;;;;;4990457;28;20208;-77
2021/10/10 09:18:13;;;;;;;15.13;10.40;;;20.10;99.90;;;;;;4959990;28;20191;-79
2021/10/10 09:20:41;;;;;;;14.00;10.40;;;19.00;99.90;;;;;;4977336;28;20264;-79
2021/10/10 09:23:16;;;;;;;15.10;10.90;;;19.10;99.90;;;;;;4978124;28;20635;-80
2021/10/10 09:25:58;;;;;;;14.40;9.60;;;19.00;99.90;;;;;;4977854;28;20227;-80
2021/10/10 09:28:25;;;;;;;13.50;8.93;;;18.10;99.90;;;;;;4975794;28;20165;-77
2021/10/10 09:31:04;;;;;;;14.37;9.47;;;16.90;99.90;;;;;;4973917;28;20193;-75
2021/10/10 09:33:39;;;;;;;15.97;9.83;;;16.70;99.90;;;;;;4975581;28;20603;-78
2021/10/10 09:36:08;;;;;;;16.43;9.63;;;16.90;99.90;;;;;;4976212;28;20651;-78
2021/10/10 09:38:43;;;;;;;12.73;9.20;;;16.40;99.90;;;;;;4975327;28;20567;-78
2021/10/10 09:44:18;;;;;;;13.10;10.27;;;16.30;99.90;;;;;;4973607;28;20193;-79
2021/10/10 09:46:46;;;;;;;16.97;10.20;;;16.60;99.90;;;;;;4974290;28;20280;-78
2021/10/10 09:49:25;;;;;;;13.93;10.10;;;16.90;99.90;;;;;;4976809;28;20235;-80
2021/10/10 09:51:55;;;;;;;15.10;9.50;;;16.70;99.90;;;;;;4975666;28;20176;-79
2021/10/10 09:54:21;;;;;;;14.57;10.30;;;16.00;99.90;;;;;;4961712;28;20227;-79
2021/10/10 09:57:06;;;;;;;13.10;9.40;;;15.30;99.90;;;;;;4979787;28;20185;-81
2021/10/10 09:59:32;;;;;;;13.93;9.77;;;14.80;99.90;;;;;;4978797;28;20711;-80
2021/10/10 10:01:57;;;;;;;13.67;9.70;;;14.50;99.90;;;;;;5004290;23;20191;-79
2021/10/10 10:04:23;;;;;;;13.53;10.40;;;14.40;99.90;;;;;;5016437;28;20218;-79
2021/10/10 10:06:50;;;;;;;13.93;9.53;;;14.30;99.90;;;;;;5032708;28;20537;-79
2021/10/10 10:09:15;;;;;;;13.17;9.63;;;14.40;99.90;;;;;;5035678;28;20171;-80
2021/10/10 10:11:42;;;;;;;10.80;8.80;;;14.50;99.90;;;;;;5021424;28;20240;-80
2021/10/10 10:14:16;;;;;;;15.73;9.13;;;14.70;99.90;;;;;;5019841;28;20615;-78
2021/10/10 10:16:43;;;;;;;14.70;9.27;;;14.90;99.90;;;;;;5019680;28;20309;-80
2021/10/10 10:19:19;;;;;;;13.63;9.70;;;15.20;99.90;;;;;;4985981;28;20180;-79
2021/10/10 10:21:53;;;;;;;13.03;8.93;;;15.40;99.90;;;;;;4982973;28;20191;-78
2021/10/10 10:24:20;;;;;;;14.23;9.57;;;15.60;99.90;;;;;;4982672;28;20309;-83
2021/10/10 10:26:46;;;;;;;13.17;9.20;;;15.70;99.90;;;;;;4998727;28;20197;-84
2021/10/10 10:29:14;;;;;;;12.00;9.37;;;15.90;99.90;;;;;;5014197;28;20175;-85
2021/10/10 10:31:40;;;;;;;15.47;9.43;;;16.00;99.90;;;;;;4998024;28;20198;-84
2021/10/10 10:34:24;;;;;;;13.20;9.30;;;16.20;99.90;;;;;;5014819;28;20172;-84
2021/10/10 10:36:51;;;;;;;13.90;10.07;;;16.20;99.90;;;;;;5001283;28;20233;-85
2021/10/10 10:39:40;;;;;;;17.33;10.13;;;16.30;99.90;;;;;;4998333;28;20773;-82
2021/10/10 10:42:06;;;;;;;16.47;10.43;;;16.20;99.90;;;;;;5015382;28;20198;-84
2021/10/10 10:44:39;;;;;;;16.03;10.77;;;16.30;99.90;;;;;;4998076;28;20199;-86
2021/10/10 10:47:09;;;;;;;11.63;9.87;;;16.40;99.90;;;;;;4998243;28;20183;-84
2021/10/10 10:50:00;;;;;;;15.40;9.80;;;16.40;99.90;;;;;;4998997;28;20234;-81
2021/10/10 10:52:32;;;;;;;15.87;10.40;;;16.40;99.90;;;;;;5014964;28;20203;-83
2021/10/10 10:55:18;;;;;;;12.67;10.70;;;16.50;99.90;;;;;;5014206;28;20211;-81
2021/10/10 10:57:56;;;;;;;16.33;10.33;;;16.50;99.90;;;;;;4998335;28;20187;-81
2021/10/10 11:00:29;;;;;;;16.40;10.73;;;16.40;99.90;;;;;;4998497;28;20728;-81
2021/10/10 11:02:57;;;;;;;12.73;10.83;;;16.20;99.90;;;;;;4998457;28;20672;-81
2021/10/10 11:05:31;;;;;;;15.50;11.27;;;16.10;99.90;;;;;;5015693;28;20564;-81
2021/10/10 11:07:57;;;;;;;19.93;12.00;;;16.00;99.90;;;;;;5013863;28;20178;-80
2021/10/10 11:10:23;;;;;;;15.77;11.33;;;15.90;99.90;;;;;;4997667;28;20176;-81
2021/10/10 11:12:55;;;;;;;13.73;11.17;;;16.00;99.90;;;;;;4997368;28;20207;-80
2021/10/10 11:15:21;;;;;;;17.80;11.47;;;16.10;99.90;;;;;;4997934;28;20254;-81
2021/10/10 11:17:54;;;;;;;16.27;11.17;;;16.10;99.90;;;;;;5014075;28;20650;-80
2021/10/10 11:20:19;;;;;;;17.27;11.30;;;16.20;99.90;;;;;;4978550;28;20215;-81
2021/10/10 11:22:45;;;;;;;14.73;11.40;;;16.20;99.90;;;;;;4986584;28;20238;-81
2021/10/10 11:25:10;;;;;;;14.53;10.73;;;16.30;99.90;;;;;;4981665;28;20243;-80
2021/10/10 11:27:36;;;;;;;13.83;10.37;;;16.30;99.90;;;;;;4980932;28;20168;-82
2021/10/10 11:30:03;;;;;;;14.90;11.47;;;16.40;99.90;;;;;;4981352;28;20635;-82
2021/10/10 11:32:28;;;;;;;16.30;11.20;;;16.50;99.90;;;;;;4997689;28;20209;-82
2021/10/10 11:34:58;;;;;;;14.47;11.00;;;16.50;99.90;;;;;;4981360;28;20183;-82
2021/10/10 11:37:24;;;;;;;16.20;10.27;;;16.40;99.90;;;;;;4983402;28;20185;-82
2021/10/10 11:39:49;;;;;;;14.23;10.83;;;16.30;99.90;;;;;;4981156;28;20180;-82
2021/10/10 11:42:15;;;;;;;16.40;10.07;;;16.30;99.90;;;;;;4997632;28;20203;-82
2021/10/10 11:44:42;;;;;;;14.57;10.70;;;16.30;99.90;;;;;;4985676;28;20203;-82
2021/10/10 11:47:17;;;;;;;14.70;11.00;;;16.10;99.90;;;;;;4982577;28;20183;-83
2021/10/10 11:49:44;;;;;;;15.57;10.97;;;16.00;99.90;;;;;;4981926;28;20179;-84
2021/10/10 11:52:24;;;;;;;14.77;11.00;;;16.10;99.90;;;;;;4998624;28;20238;-83
2021/10/10 11:55:21;;;;;;;13.80;9.93;;;16.00;99.90;;;;;;5001682;28;20179;-82
2021/10/10 11:57:53;;;;;;;18.47;10.87;;;16.10;99.90;;;;;;5003360;28;20191;-82
2021/10/10 12:00:19;;;;;;;14.43;10.43;;;16.10;99.90;;;;;;4996273;28;20278;-83
2021/10/10 12:02:46;;;;;;;16.10;10.80;;;16.10;99.90;;;;;;5000822;28;20616;-83
2021/10/10 12:05:16;;;;;;;17.37;10.20;;;16.00;99.90;;;;;;4998173;28;20203;-83
2021/10/10 12:07:43;;;;;;;14.93;10.73;;;16.00;99.90;;;;;;5000705;28;20179;-82
2021/10/10 12:10:10;;;;;;;12.47;10.13;;;16.10;99.90;;;;;;4984774;28;20175;-82
2021/10/10 12:12:35;;;;;;;13.10;10.07;;;16.00;99.90;;;;;;5017184;28;20682;-82
2021/10/10 12:15:01;;;;;;;14.17;10.20;;;15.90;99.90;;;;;;4986605;28;20186;-81
2021/10/10 12:17:43;;;;;;;13.83;9.70;;;16.00;99.90;;;;;;4984767;28;20263;-82
2021/10/10 12:20:14;;;;;;;14.00;9.20;;;16.00;99.90;;;;;;5001210;28;20557;-82
2021/10/10 12:22:50;;;;;;;16.07;9.93;;;16.10;99.90;;;;;;5020447;28;20203;-81
2021/10/10 12:25:25;;;;;;;16.23;9.80;;;16.20;99.90;;;;;;5016264;28;20203;-83
2021/10/10 12:28:11;;;;;;;11.63;8.77;;;16.20;99.90;;;;;;5000601;28;20179;-83
2021/10/10 12:30:38;;;;;;;14.17;8.53;;;16.20;99.90;;;;;;4985026;28;20228;-83
2021/10/10 12:33:20;;;;;;;15.50;9.07;;;16.20;99.90;;;;;;4986554;28;20218;-85
2021/10/10 12:35:56;;;;;;;12.43;8.40;;;16.30;99.90;;;;;;5002409;28;20164;-84
2021/10/10 12:38:32;;;;;;;12.70;9.40;;;16.40;99.90;;;;;;4985016;28;20244;-83
2021/10/10 12:40:59;;;;;;;13.03;8.30;;;16.50;99.90;;;;;;5016991;28;20195;-82
2021/10/10 12:43:39;;;;;;;12.73;8.53;;;16.50;99.90;;;;;;4990133;28;20211;-81